Ana Sayfa
METAR-TAF:

METAR-TAF

Havaalanları :

Palm Springs International Airport

Palm Springs, Kaliforniya, Amerika Birleşik Devletleri

Enlem: 33-49-20N, Boylam: 116-30-13W, yükseklik: 140 m

Güncel hava durumu gözlemi

Rapor saat 01:53 UTC de 55 dakika önce yapıldı.
Sakin rüzgar
Sıcaklık 17°C
Nem 52%
Basınç 1019 hPa
Görüş mesafesi: 16.1 km
Açık gökyüzü

METAR: KPSP 220153Z 00000KT 10SM CLR 17/07 A3008 RMK AO2 SLP186 T01670067

Saat: 18:48 (02:48 UTC)

Tahmin

Rapor saat 23:31 UTC de 3 saat ve 17 dakika önce yapıldı.
Ayın 22'si saat 00 UTC'den ayın 22'si saat 24 UTC'ye kadar geçerli Tahmin
Rüzgar değişken yönden 4 kt
Görüş mesafesi: 10 km
Açık gökyüzü
Ayın 22'si saat 2200 UTC'den
Rüzgar kuzey/kuzeybatıdan 7 kt
Görüş mesafesi: 10 km
Açık gökyüzü

TAF: KPSP 212331Z 2200/2224 VRB04KT P6SM SKC FM222200 34007KT P6SM SKC

4.000'den fazla havaalanı için hava durumu gözlemleri ve tahminleri (METAR ve TAF raporları).

Kullanılabilir istasyonlar harita üzerinde sarı ve kırmızı noktalarla gösterilir.

İstasyonun adını görmek için fareyi noktanın üzerinde gezdirin.

Sonrasında hava gözlem ve tahminlerini görmek için tıklayın.

Haritayı değiştirmek için: yaklaştırmak için siyah artı işaretli yeşil düğmeye ve uzaklaştırmak için de eksi işaretli düğmeye hızla tıklayın; bitişik haritalar için yeşil okları kullanın.


METAR-TAF: